sensor_id;sensor_type;location;lat;lon;timestamp;P1;durP1;ratioP1;P2;durP2;ratioP2
37288;SDS011;23174;49.462;11.000;2023-10-19T00:00:21;11.68;;;10.48;;
37288;SDS011;23174;49.462;11.000;2023-10-19T00:02:21;12.55;;;11.35;;
37288;SDS011;23174;49.462;11.000;2023-10-19T00:04:23;11.15;;;10.05;;
37288;SDS011;23174;49.462;11.000;2023-10-19T00:06:24;11.50;;;10.25;;
37288;SDS011;23174;49.462;11.000;2023-10-19T00:08:24;12.00;;;10.80;;
37288;SDS011;23174;49.462;11.000;2023-10-19T00:10:25;12.38;;;11.10;;
37288;SDS011;23174;49.462;11.000;2023-10-19T00:12:29;12.38;;;11.18;;
37288;SDS011;23174;49.462;11.000;2023-10-19T00:14:30;12.15;;;10.52;;
37288;SDS011;23174;49.462;11.000;2023-10-19T00:16:32;12.70;;;11.43;;
37288;SDS011;23174;49.462;11.000;2023-10-19T00:18:35;12.55;;;11.25;;
37288;SDS011;23174;49.462;11.000;2023-10-19T00:20:36;11.45;;;10.43;;
37288;SDS011;23174;49.462;11.000;2023-10-19T00:22:49;12.02;;;10.73;;
37288;SDS011;23174;49.462;11.000;2023-10-19T00:24:49;10.98;;;9.93;;
37288;SDS011;23174;49.462;11.000;2023-10-19T00:26:50;11.73;;;10.52;;
37288;SDS011;23174;49.462;11.000;2023-10-19T00:28:53;12.05;;;10.93;;
37288;SDS011;23174;49.462;11.000;2023-10-19T00:30:55;16.55;;;11.55;;
37288;SDS011;23174;49.462;11.000;2023-10-19T00:33:03;11.38;;;10.25;;
37288;SDS011;23174;49.462;11.000;2023-10-19T00:35:05;12.18;;;10.85;;
37288;SDS011;23174;49.462;11.000;2023-10-19T00:37:26;10.60;;;9.30;;
37288;SDS011;23174;49.462;11.000;2023-10-19T00:39:27;14.05;;;10.98;;
37288;SDS011;23174;49.462;11.000;2023-10-19T00:41:27;12.20;;;11.00;;
37288;SDS011;23174;49.462;11.000;2023-10-19T00:43:29;12.05;;;10.85;;
37288;SDS011;23174;49.462;11.000;2023-10-19T00:45:51;11.48;;;10.43;;
37288;SDS011;23174;49.462;11.000;2023-10-19T00:47:52;13.43;;;11.38;;
37288;SDS011;23174;49.462;11.000;2023-10-19T00:49:53;11.65;;;10.25;;
37288;SDS011;23174;49.462;11.000;2023-10-19T00:51:55;12.10;;;10.93;;
37288;SDS011;23174;49.462;11.000;2023-10-19T00:54:14;11.90;;;10.80;;
37288;SDS011;23174;49.462;11.000;2023-10-19T00:56:24;11.23;;;10.18;;
37288;SDS011;23174;49.462;11.000;2023-10-19T00:58:27;12.07;;;11.00;;
37288;SDS011;23174;49.462;11.000;2023-10-19T01:00:30;12.43;;;11.23;;
37288;SDS011;23174;49.462;11.000;2023-10-19T01:02:31;12.75;;;10.65;;
37288;SDS011;23174;49.462;11.000;2023-10-19T01:04:32;12.63;;;11.35;;
37288;SDS011;23174;49.462;11.000;2023-10-19T01:06:34;12.65;;;11.40;;
37288;SDS011;23174;49.462;11.000;2023-10-19T01:08:36;11.93;;;10.73;;
37288;SDS011;23174;49.462;11.000;2023-10-19T01:10:41;12.63;;;11.48;;
37288;SDS011;23174;49.462;11.000;2023-10-19T01:12:45;14.68;;;12.02;;
37288;SDS011;23174;49.462;11.000;2023-10-19T01:14:45;12.98;;;11.55;;
37288;SDS011;23174;49.462;11.000;2023-10-19T01:17:29;12.80;;;11.50;;
37288;SDS011;23174;49.462;11.000;2023-10-19T01:19:31;12.90;;;11.55;;
37288;SDS011;23174;49.462;11.000;2023-10-19T01:21:31;12.30;;;11.20;;
37288;SDS011;23174;49.462;11.000;2023-10-19T01:23:45;12.27;;;11.18;;
37288;SDS011;23174;49.462;11.000;2023-10-19T01:25:47;13.93;;;12.00;;
37288;SDS011;23174;49.462;11.000;2023-10-19T01:27:57;13.20;;;11.88;;
37288;SDS011;23174;49.462;11.000;2023-10-19T01:29:58;12.55;;;11.40;;
37288;SDS011;23174;49.462;11.000;2023-10-19T01:32:02;13.02;;;11.82;;
37288;SDS011;23174;49.462;11.000;2023-10-19T01:34:08;12.60;;;11.40;;
37288;SDS011;23174;49.462;11.000;2023-10-19T01:36:10;13.63;;;12.32;;
37288;SDS011;23174;49.462;11.000;2023-10-19T01:38:10;13.60;;;12.15;;
37288;SDS011;23174;49.462;11.000;2023-10-19T01:40:11;12.70;;;11.38;;
37288;SDS011;23174;49.462;11.000;2023-10-19T01:42:15;13.23;;;11.93;;
37288;SDS011;23174;49.462;11.000;2023-10-19T01:44:17;13.57;;;12.13;;
37288;SDS011;23174;49.462;11.000;2023-10-19T01:46:21;12.95;;;11.75;;
37288;SDS011;23174;49.462;11.000;2023-10-19T01:48:29;13.93;;;11.93;;
37288;SDS011;23174;49.462;11.000;2023-10-19T01:50:33;14.70;;;12.45;;
37288;SDS011;23174;49.462;11.000;2023-10-19T01:52:39;13.30;;;11.95;;
37288;SDS011;23174;49.462;11.000;2023-10-19T01:54:39;12.65;;;11.25;;
37288;SDS011;23174;49.462;11.000;2023-10-19T01:56:40;14.10;;;12.70;;
37288;SDS011;23174;49.462;11.000;2023-10-19T01:58:44;14.20;;;12.40;;
37288;SDS011;23174;49.462;11.000;2023-10-19T02:00:49;13.65;;;12.35;;
37288;SDS011;23174;49.462;11.000;2023-10-19T02:02:50;14.05;;;12.63;;
37288;SDS011;23174;49.462;11.000;2023-10-19T02:04:50;13.82;;;11.85;;
37288;SDS011;23174;49.462;11.000;2023-10-19T02:06:53;13.40;;;12.10;;
37288;SDS011;23174;49.462;11.000;2023-10-19T02:09:01;13.68;;;12.48;;
37288;SDS011;23174;49.462;11.000;2023-10-19T02:11:09;13.82;;;12.32;;
37288;SDS011;23174;49.462;11.000;2023-10-19T02:13:16;13.60;;;12.20;;
37288;SDS011;23174;49.462;11.000;2023-10-19T02:15:17;13.88;;;12.63;;
37288;SDS011;23174;49.462;11.000;2023-10-19T02:17:17;14.15;;;12.70;;
37288;SDS011;23174;49.462;11.000;2023-10-19T02:19:18;15.10;;;13.00;;
37288;SDS011;23174;49.462;11.000;2023-10-19T02:21:20;14.05;;;12.65;;
37288;SDS011;23174;49.462;11.000;2023-10-19T02:23:27;15.05;;;13.55;;
37288;SDS011;23174;49.462;11.000;2023-10-19T02:25:27;14.15;;;12.90;;
37288;SDS011;23174;49.462;11.000;2023-10-19T02:27:30;14.30;;;13.00;;
37288;SDS011;23174;49.462;11.000;2023-10-19T02:29:31;14.32;;;13.02;;
37288;SDS011;23174;49.462;11.000;2023-10-19T02:31:31;13.25;;;12.05;;
37288;SDS011;23174;49.462;11.000;2023-10-19T02:33:32;13.32;;;12.13;;
37288;SDS011;23174;49.462;11.000;2023-10-19T02:35:32;15.48;;;13.65;;
37288;SDS011;23174;49.462;11.000;2023-10-19T02:37:35;14.27;;;12.93;;
37288;SDS011;23174;49.462;11.000;2023-10-19T02:39:38;13.85;;;12.43;;
37288;SDS011;23174;49.462;11.000;2023-10-19T02:41:43;13.93;;;12.63;;
37288;SDS011;23174;49.462;11.000;2023-10-19T02:43:44;13.68;;;12.27;;
37288;SDS011;23174;49.462;11.000;2023-10-19T02:45:46;15.52;;;11.80;;
37288;SDS011;23174;49.462;11.000;2023-10-19T02:47:47;13.93;;;12.57;;
37288;SDS011;23174;49.462;11.000;2023-10-19T02:49:50;14.52;;;13.13;;
37288;SDS011;23174;49.462;11.000;2023-10-19T02:51:51;14.88;;;13.32;;
37288;SDS011;23174;49.462;11.000;2023-10-19T02:53:53;14.40;;;13.00;;
37288;SDS011;23174;49.462;11.000;2023-10-19T02:55:54;13.48;;;12.18;;
37288;SDS011;23174;49.462;11.000;2023-10-19T02:57:55;13.73;;;12.38;;
37288;SDS011;23174;49.462;11.000;2023-10-19T02:59:59;14.98;;;13.43;;
37288;SDS011;23174;49.462;11.000;2023-10-19T03:02:00;13.10;;;11.90;;
37288;SDS011;23174;49.462;11.000;2023-10-19T03:04:01;14.38;;;12.93;;
37288;SDS011;23174;49.462;11.000;2023-10-19T03:06:04;14.15;;;12.95;;
37288;SDS011;23174;49.462;11.000;2023-10-19T03:08:06;14.13;;;12.75;;
37288;SDS011;23174;49.462;11.000;2023-10-19T03:10:07;13.45;;;12.25;;
37288;SDS011;23174;49.462;11.000;2023-10-19T03:12:10;14.50;;;12.75;;
37288;SDS011;23174;49.462;11.000;2023-10-19T03:14:13;13.45;;;12.25;;
37288;SDS011;23174;49.462;11.000;2023-10-19T03:16:14;14.10;;;12.80;;
37288;SDS011;23174;49.462;11.000;2023-10-19T03:18:15;13.63;;;12.32;;
37288;SDS011;23174;49.462;11.000;2023-10-19T03:20:16;13.93;;;12.48;;
37288;SDS011;23174;49.462;11.000;2023-10-19T03:22:23;14.27;;;12.98;;
37288;SDS011;23174;49.462;11.000;2023-10-19T03:24:24;13.68;;;12.32;;
37288;SDS011;23174;49.462;11.000;2023-10-19T03:26:43;15.45;;;12.35;;
37288;SDS011;23174;49.462;11.000;2023-10-19T03:28:49;14.27;;;12.63;;
37288;SDS011;23174;49.462;11.000;2023-10-19T03:30:54;16.15;;;12.95;;
37288;SDS011;23174;49.462;11.000;2023-10-19T03:32:55;14.57;;;13.10;;
37288;SDS011;23174;49.462;11.000;2023-10-19T03:34:55;14.15;;;12.65;;
37288;SDS011;23174;49.462;11.000;2023-10-19T03:36:56;14.50;;;13.10;;
37288;SDS011;23174;49.462;11.000;2023-10-19T03:38:57;15.13;;;13.73;;
37288;SDS011;23174;49.462;11.000;2023-10-19T03:41:04;14.80;;;13.27;;
37288;SDS011;23174;49.462;11.000;2023-10-19T03:43:07;13.38;;;12.23;;
37288;SDS011;23174;49.462;11.000;2023-10-19T03:45:17;14.50;;;13.10;;
37288;SDS011;23174;49.462;11.000;2023-10-19T03:47:18;14.80;;;12.80;;
37288;SDS011;23174;49.462;11.000;2023-10-19T03:49:34;15.30;;;13.80;;
37288;SDS011;23174;49.462;11.000;2023-10-19T03:51:36;14.82;;;12.85;;
37288;SDS011;23174;49.462;11.000;2023-10-19T03:53:40;14.63;;;13.23;;
37288;SDS011;23174;49.462;11.000;2023-10-19T03:55:53;13.55;;;12.25;;
37288;SDS011;23174;49.462;11.000;2023-10-19T03:57:54;14.38;;;12.98;;
37288;SDS011;23174;49.462;11.000;2023-10-19T03:59:55;14.88;;;13.38;;
37288;SDS011;23174;49.462;11.000;2023-10-19T04:01:59;14.05;;;12.75;;
37288;SDS011;23174;49.462;11.000;2023-10-19T04:04:00;14.13;;;12.82;;
37288;SDS011;23174;49.462;11.000;2023-10-19T04:06:01;13.75;;;12.45;;
37288;SDS011;23174;49.462;11.000;2023-10-19T04:08:05;13.98;;;12.73;;
37288;SDS011;23174;49.462;11.000;2023-10-19T04:10:13;14.88;;;13.40;;
37288;SDS011;23174;49.462;11.000;2023-10-19T04:12:29;14.85;;;12.85;;
37288;SDS011;23174;49.462;11.000;2023-10-19T04:14:35;13.98;;;12.65;;
37288;SDS011;23174;49.462;11.000;2023-10-19T04:16:36;14.02;;;12.70;;
37288;SDS011;23174;49.462;11.000;2023-10-19T04:18:37;14.57;;;13.10;;
37288;SDS011;23174;49.462;11.000;2023-10-19T04:20:43;14.45;;;12.98;;
37288;SDS011;23174;49.462;11.000;2023-10-19T04:23:04;13.82;;;12.50;;
37288;SDS011;23174;49.462;11.000;2023-10-19T04:25:11;16.52;;;12.73;;
37288;SDS011;23174;49.462;11.000;2023-10-19T04:27:12;15.75;;;13.25;;
37288;SDS011;23174;49.462;11.000;2023-10-19T04:29:13;13.82;;;12.50;;
37288;SDS011;23174;49.462;11.000;2023-10-19T04:31:17;14.18;;;12.77;;
37288;SDS011;23174;49.462;11.000;2023-10-19T04:33:18;14.00;;;12.52;;
37288;SDS011;23174;49.462;11.000;2023-10-19T04:35:19;13.65;;;12.38;;
37288;SDS011;23174;49.462;11.000;2023-10-19T04:37:22;13.00;;;11.80;;
37288;SDS011;23174;49.462;11.000;2023-10-19T04:39:24;13.95;;;12.35;;
37288;SDS011;23174;49.462;11.000;2023-10-19T04:41:24;14.63;;;13.32;;
37288;SDS011;23174;49.462;11.000;2023-10-19T04:43:27;14.00;;;12.70;;
37288;SDS011;23174;49.462;11.000;2023-10-19T04:45:28;13.82;;;12.48;;
37288;SDS011;23174;49.462;11.000;2023-10-19T04:47:29;13.63;;;12.18;;
37288;SDS011;23174;49.462;11.000;2023-10-19T04:49:30;13.80;;;12.43;;
37288;SDS011;23174;49.462;11.000;2023-10-19T04:51:30;13.60;;;12.25;;
37288;SDS011;23174;49.462;11.000;2023-10-19T04:53:31;13.80;;;12.45;;
37288;SDS011;23174;49.462;11.000;2023-10-19T04:55:32;13.52;;;12.25;;
37288;SDS011;23174;49.462;11.000;2023-10-19T04:57:33;15.85;;;13.52;;
37288;SDS011;23174;49.462;11.000;2023-10-19T04:59:34;14.68;;;12.45;;
37288;SDS011;23174;49.462;11.000;2023-10-19T05:01:35;14.68;;;12.98;;
37288;SDS011;23174;49.462;11.000;2023-10-19T05:03:37;13.60;;;12.35;;
37288;SDS011;23174;49.462;11.000;2023-10-19T05:05:37;14.63;;;13.18;;
37288;SDS011;23174;49.462;11.000;2023-10-19T05:07:38;14.35;;;12.90;;
37288;SDS011;23174;49.462;11.000;2023-10-19T05:09:39;14.63;;;13.23;;
37288;SDS011;23174;49.462;11.000;2023-10-19T05:11:39;15.30;;;13.65;;
37288;SDS011;23174;49.462;11.000;2023-10-19T05:13:40;15.00;;;13.60;;
37288;SDS011;23174;49.462;11.000;2023-10-19T05:15:40;13.32;;;12.02;;
37288;SDS011;23174;49.462;11.000;2023-10-19T05:17:42;14.13;;;12.88;;
37288;SDS011;23174;49.462;11.000;2023-10-19T05:19:43;14.73;;;13.15;;
37288;SDS011;23174;49.462;11.000;2023-10-19T05:21:44;14.13;;;12.82;;
37288;SDS011;23174;49.462;11.000;2023-10-19T05:23:44;14.43;;;12.82;;
37288;SDS011;23174;49.462;11.000;2023-10-19T05:25:45;14.13;;;12.73;;
37288;SDS011;23174;49.462;11.000;2023-10-19T05:27:45;17.23;;;14.05;;
37288;SDS011;23174;49.462;11.000;2023-10-19T05:29:46;15.38;;;13.27;;
37288;SDS011;23174;49.462;11.000;2023-10-19T05:31:47;15.93;;;14.23;;
37288;SDS011;23174;49.462;11.000;2023-10-19T05:33:47;15.48;;;13.90;;
37288;SDS011;23174;49.462;11.000;2023-10-19T05:35:48;15.40;;;13.80;;
37288;SDS011;23174;49.462;11.000;2023-10-19T05:37:50;16.48;;;13.70;;
37288;SDS011;23174;49.462;11.000;2023-10-19T05:39:50;17.80;;;14.40;;
37288;SDS011;23174;49.462;11.000;2023-10-19T05:41:51;17.30;;;14.52;;
37288;SDS011;23174;49.462;11.000;2023-10-19T05:43:53;17.52;;;14.93;;
37288;SDS011;23174;49.462;11.000;2023-10-19T05:45:53;17.17;;;15.30;;
37288;SDS011;23174;49.462;11.000;2023-10-19T05:47:57;22.90;;;15.80;;
37288;SDS011;23174;49.462;11.000;2023-10-19T05:49:58;17.17;;;14.68;;
37288;SDS011;23174;49.462;11.000;2023-10-19T05:51:58;15.45;;;13.95;;
37288;SDS011;23174;49.462;11.000;2023-10-19T05:53:59;14.63;;;13.07;;
37288;SDS011;23174;49.462;11.000;2023-10-19T05:56:03;15.75;;;14.10;;
37288;SDS011;23174;49.462;11.000;2023-10-19T05:58:03;15.90;;;13.85;;
37288;SDS011;23174;49.462;11.000;2023-10-19T06:00:04;21.50;;;15.60;;
37288;SDS011;23174;49.462;11.000;2023-10-19T06:02:05;16.08;;;14.48;;
37288;SDS011;23174;49.462;11.000;2023-10-19T06:04:07;15.70;;;14.15;;
37288;SDS011;23174;49.462;11.000;2023-10-19T06:06:08;15.82;;;14.35;;
37288;SDS011;23174;49.462;11.000;2023-10-19T06:08:08;17.25;;;14.15;;
37288;SDS011;23174;49.462;11.000;2023-10-19T06:10:12;15.18;;;13.60;;
37288;SDS011;23174;49.462;11.000;2023-10-19T06:12:17;16.08;;;14.45;;
37288;SDS011;23174;49.462;11.000;2023-10-19T06:14:18;15.60;;;14.00;;
37288;SDS011;23174;49.462;11.000;2023-10-19T06:16:19;15.07;;;13.57;;
37288;SDS011;23174;49.462;11.000;2023-10-19T06:18:21;14.95;;;13.55;;
37288;SDS011;23174;49.462;11.000;2023-10-19T06:20:21;15.70;;;14.20;;
37288;SDS011;23174;49.462;11.000;2023-10-19T06:22:26;15.48;;;13.98;;
37288;SDS011;23174;49.462;11.000;2023-10-19T06:24:28;15.80;;;14.05;;
37288;SDS011;23174;49.462;11.000;2023-10-19T06:26:28;15.32;;;13.85;;
37288;SDS011;23174;49.462;11.000;2023-10-19T06:28:29;15.55;;;13.95;;
37288;SDS011;23174;49.462;11.000;2023-10-19T06:30:34;16.10;;;12.85;;
37288;SDS011;23174;49.462;11.000;2023-10-19T06:32:34;20.35;;;13.57;;
37288;SDS011;23174;49.462;11.000;2023-10-19T06:34:35;15.43;;;13.90;;
37288;SDS011;23174;49.462;11.000;2023-10-19T06:36:35;14.98;;;13.43;;
37288;SDS011;23174;49.462;11.000;2023-10-19T06:38:37;2.83;;;2.25;;
37288;SDS011;23174;49.462;11.000;2023-10-19T06:40:38;2.83;;;2.60;;
37288;SDS011;23174;49.462;11.000;2023-10-19T06:42:38;3.53;;;2.80;;
37288;SDS011;23174;49.462;11.000;2023-10-19T06:44:40;2.72;;;2.53;;
37288;SDS011;23174;49.462;11.000;2023-10-19T06:46:44;2.70;;;2.47;;
37288;SDS011;23174;49.462;11.000;2023-10-19T06:48:44;2.90;;;2.70;;
37288;SDS011;23174;49.462;11.000;2023-10-19T06:50:45;11.48;;;6.00;;
37288;SDS011;23174;49.462;11.000;2023-10-19T06:52:46;4.60;;;2.50;;
37288;SDS011;23174;49.462;11.000;2023-10-19T06:54:48;0.95;;;0.95;;
37288;SDS011;23174;49.462;11.000;2023-10-19T06:56:49;3.67;;;3.15;;
37288;SDS011;23174;49.462;11.000;2023-10-19T06:58:49;14.35;;;12.95;;
37288;SDS011;23174;49.462;11.000;2023-10-19T07:00:50;14.70;;;13.18;;
37288;SDS011;23174;49.462;11.000;2023-10-19T07:02:56;15.35;;;13.85;;
37288;SDS011;23174;49.462;11.000;2023-10-19T07:05:00;14.73;;;13.18;;
37288;SDS011;23174;49.462;11.000;2023-10-19T07:07:00;15.25;;;13.65;;
37288;SDS011;23174;49.462;11.000;2023-10-19T07:09:01;15.55;;;13.95;;
37288;SDS011;23174;49.462;11.000;2023-10-19T07:11:04;13.85;;;12.57;;
37288;SDS011;23174;49.462;11.000;2023-10-19T07:13:04;14.93;;;13.35;;
37288;SDS011;23174;49.462;11.000;2023-10-19T07:15:05;14.27;;;12.27;;
37288;SDS011;23174;49.462;11.000;2023-10-19T07:17:07;14.60;;;13.20;;
37288;SDS011;23174;49.462;11.000;2023-10-19T07:19:07;18.52;;;13.07;;
37288;SDS011;23174;49.462;11.000;2023-10-19T07:21:09;14.20;;;12.80;;
37288;SDS011;23174;49.462;11.000;2023-10-19T07:23:10;14.10;;;12.73;;
37288;SDS011;23174;49.462;11.000;2023-10-19T07:25:18;14.45;;;12.98;;
37288;SDS011;23174;49.462;11.000;2023-10-19T07:27:21;14.85;;;12.90;;
37288;SDS011;23174;49.462;11.000;2023-10-19T07:29:22;16.02;;;14.00;;
37288;SDS011;23174;49.462;11.000;2023-10-19T07:31:23;14.10;;;12.52;;
37288;SDS011;23174;49.462;11.000;2023-10-19T07:33:23;16.13;;;13.15;;
37288;SDS011;23174;49.462;11.000;2023-10-19T07:35:24;14.02;;;12.73;;
37288;SDS011;23174;49.462;11.000;2023-10-19T07:37:26;17.88;;;13.50;;
37288;SDS011;23174;49.462;11.000;2023-10-19T07:39:28;15.02;;;13.52;;
37288;SDS011;23174;49.462;11.000;2023-10-19T07:41:33;14.82;;;13.32;;
37288;SDS011;23174;49.462;11.000;2023-10-19T07:43:36;16.42;;;13.45;;
37288;SDS011;23174;49.462;11.000;2023-10-19T07:45:37;16.13;;;13.27;;
37288;SDS011;23174;49.462;11.000;2023-10-19T07:47:40;15.73;;;13.52;;
37288;SDS011;23174;49.462;11.000;2023-10-19T07:49:41;15.90;;;12.30;;
37288;SDS011;23174;49.462;11.000;2023-10-19T07:51:46;16.23;;;13.88;;
37288;SDS011;23174;49.462;11.000;2023-10-19T07:53:47;14.65;;;13.15;;
37288;SDS011;23174;49.462;11.000;2023-10-19T07:55:48;14.75;;;13.32;;
37288;SDS011;23174;49.462;11.000;2023-10-19T07:57:49;14.10;;;12.52;;
37288;SDS011;23174;49.462;11.000;2023-10-19T07:59:50;14.50;;;13.00;;
37288;SDS011;23174;49.462;11.000;2023-10-19T08:01:50;14.50;;;13.10;;
37288;SDS011;23174;49.462;11.000;2023-10-19T08:03:51;14.65;;;12.90;;
37288;SDS011;23174;49.462;11.000;2023-10-19T08:05:51;14.15;;;12.85;;
37288;SDS011;23174;49.462;11.000;2023-10-19T08:07:52;17.02;;;13.30;;
37288;SDS011;23174;49.462;11.000;2023-10-19T08:09:53;14.88;;;13.52;;
37288;SDS011;23174;49.462;11.000;2023-10-19T08:11:54;14.35;;;12.80;;
37288;SDS011;23174;49.462;11.000;2023-10-19T08:13:59;14.23;;;12.77;;
37288;SDS011;23174;49.462;11.000;2023-10-19T08:16:00;14.30;;;12.90;;
37288;SDS011;23174;49.462;11.000;2023-10-19T08:18:00;14.23;;;12.93;;
37288;SDS011;23174;49.462;11.000;2023-10-19T08:20:01;14.02;;;12.73;;
37288;SDS011;23174;49.462;11.000;2023-10-19T08:22:08;14.43;;;13.02;;
37288;SDS011;23174;49.462;11.000;2023-10-19T08:24:09;15.85;;;12.73;;
37288;SDS011;23174;49.462;11.000;2023-10-19T08:26:13;15.70;;;13.13;;
37288;SDS011;23174;49.462;11.000;2023-10-19T08:28:15;14.90;;;13.50;;
37288;SDS011;23174;49.462;11.000;2023-10-19T08:30:16;16.48;;;14.98;;
37288;SDS011;23174;49.462;11.000;2023-10-19T08:32:18;15.95;;;14.35;;
37288;SDS011;23174;49.462;11.000;2023-10-19T08:34:19;15.63;;;14.10;;
37288;SDS011;23174;49.462;11.000;2023-10-19T08:36:20;20.17;;;13.85;;
37288;SDS011;23174;49.462;11.000;2023-10-19T08:38:21;14.65;;;13.13;;
37288;SDS011;23174;49.462;11.000;2023-10-19T08:40:21;14.02;;;12.70;;
37288;SDS011;23174;49.462;11.000;2023-10-19T08:42:24;19.23;;;14.07;;
37288;SDS011;23174;49.462;11.000;2023-10-19T08:44:24;17.75;;;14.93;;
37288;SDS011;23174;49.462;11.000;2023-10-19T08:46:25;15.07;;;13.38;;
37288;SDS011;23174;49.462;11.000;2023-10-19T08:48:25;15.55;;;13.65;;
37288;SDS011;23174;49.462;11.000;2023-10-19T08:50:27;14.32;;;12.93;;
37288;SDS011;23174;49.462;11.000;2023-10-19T08:52:29;15.82;;;13.73;;
37288;SDS011;23174;49.462;11.000;2023-10-19T08:54:29;18.98;;;13.25;;
37288;SDS011;23174;49.462;11.000;2023-10-19T08:56:30;13.73;;;12.48;;
37288;SDS011;23174;49.462;11.000;2023-10-19T08:58:33;14.02;;;12.63;;
37288;SDS011;23174;49.462;11.000;2023-10-19T09:00:44;14.73;;;12.90;;
37288;SDS011;23174;49.462;11.000;2023-10-19T09:02:49;14.68;;;13.18;;
37288;SDS011;23174;49.462;11.000;2023-10-19T09:04:49;14.60;;;13.20;;
37288;SDS011;23174;49.462;11.000;2023-10-19T09:06:50;14.57;;;12.40;;
37288;SDS011;23174;49.462;11.000;2023-10-19T09:08:55;14.52;;;13.15;;
37288;SDS011;23174;49.462;11.000;2023-10-19T09:10:57;14.20;;;12.90;;
37288;SDS011;23174;49.462;11.000;2023-10-19T09:12:59;14.25;;;12.95;;
37288;SDS011;23174;49.462;11.000;2023-10-19T09:15:05;14.48;;;13.07;;
37288;SDS011;23174;49.462;11.000;2023-10-19T09:17:29;14.43;;;13.18;;
37288;SDS011;23174;49.462;11.000;2023-10-19T09:19:40;15.23;;;13.50;;
37288;SDS011;23174;49.462;11.000;2023-10-19T09:21:42;13.95;;;12.52;;
37288;SDS011;23174;49.462;11.000;2023-10-19T09:23:43;14.68;;;12.98;;
37288;SDS011;23174;49.462;11.000;2023-10-19T09:25:43;14.75;;;13.43;;
37288;SDS011;23174;49.462;11.000;2023-10-19T09:27:44;14.88;;;12.82;;
37288;SDS011;23174;49.462;11.000;2023-10-19T09:29:45;13.88;;;12.40;;
37288;SDS011;23174;49.462;11.000;2023-10-19T09:31:47;13.13;;;11.93;;
37288;SDS011;23174;49.462;11.000;2023-10-19T09:33:48;14.65;;;12.98;;
37288;SDS011;23174;49.462;11.000;2023-10-19T09:35:50;14.48;;;12.88;;
37288;SDS011;23174;49.462;11.000;2023-10-19T09:37:56;14.23;;;12.82;;
37288;SDS011;23174;49.462;11.000;2023-10-19T09:39:56;14.10;;;12.73;;
37288;SDS011;23174;49.462;11.000;2023-10-19T09:41:57;13.27;;;12.05;;
37288;SDS011;23174;49.462;11.000;2023-10-19T09:44:02;13.85;;;12.55;;
37288;SDS011;23174;49.462;11.000;2023-10-19T09:46:07;14.85;;;13.27;;
37288;SDS011;23174;49.462;11.000;2023-10-19T09:48:09;12.93;;;11.73;;
37288;SDS011;23174;49.462;11.000;2023-10-19T09:50:16;13.50;;;12.35;;
37288;SDS011;23174;49.462;11.000;2023-10-19T09:52:17;12.77;;;11.57;;
37288;SDS011;23174;49.462;11.000;2023-10-19T09:54:29;16.15;;;12.45;;
37288;SDS011;23174;49.462;11.000;2023-10-19T09:56:41;14.10;;;12.57;;
37288;SDS011;23174;49.462;11.000;2023-10-19T09:58:47;14.35;;;12.93;;
37288;SDS011;23174;49.462;11.000;2023-10-19T10:00:51;15.82;;;13.95;;
37288;SDS011;23174;49.462;11.000;2023-10-19T10:02:51;16.83;;;12.70;;
37288;SDS011;23174;49.462;11.000;2023-10-19T10:04:52;13.25;;;12.00;;
37288;SDS011;23174;49.462;11.000;2023-10-19T10:08:54;13.38;;;12.07;;
37288;SDS011;23174;49.462;11.000;2023-10-19T10:10:56;13.75;;;12.48;;
37288;SDS011;23174;49.462;11.000;2023-10-19T10:13:02;12.93;;;11.82;;
37288;SDS011;23174;49.462;11.000;2023-10-19T10:15:38;13.98;;;12.55;;
37288;SDS011;23174;49.462;11.000;2023-10-19T10:17:41;14.40;;;11.80;;
37288;SDS011;23174;49.462;11.000;2023-10-19T10:19:41;15.00;;;12.48;;
37288;SDS011;23174;49.462;11.000;2023-10-19T10:21:42;15.57;;;12.13;;
37288;SDS011;23174;49.462;11.000;2023-10-19T10:24:11;12.85;;;11.55;;
37288;SDS011;23174;49.462;11.000;2023-10-19T10:26:15;13.82;;;12.10;;
37288;SDS011;23174;49.462;11.000;2023-10-19T10:28:17;14.70;;;13.30;;
37288;SDS011;23174;49.462;11.000;2023-10-19T10:30:19;13.23;;;11.95;;
37288;SDS011;23174;49.462;11.000;2023-10-19T10:34:50;13.40;;;12.10;;
37288;SDS011;23174;49.462;11.000;2023-10-19T10:36:59;14.07;;;12.65;;
37288;SDS011;23174;49.462;11.000;2023-10-19T10:39:10;13.85;;;12.27;;
37288;SDS011;23174;49.462;11.000;2023-10-19T10:41:20;13.68;;;12.40;;
37288;SDS011;23174;49.462;11.000;2023-10-19T10:43:21;13.32;;;12.05;;
37288;SDS011;23174;49.462;11.000;2023-10-19T10:45:23;13.65;;;12.40;;
37288;SDS011;23174;49.462;11.000;2023-10-19T10:47:23;13.10;;;11.90;;
37288;SDS011;23174;49.462;11.000;2023-10-19T10:49:24;12.93;;;11.73;;
37288;SDS011;23174;49.462;11.000;2023-10-19T10:51:26;16.52;;;11.80;;
37288;SDS011;23174;49.462;11.000;2023-10-19T10:53:28;12.90;;;11.60;;
37288;SDS011;23174;49.462;11.000;2023-10-19T10:55:29;13.90;;;11.95;;
37288;SDS011;23174;49.462;11.000;2023-10-19T10:57:30;12.43;;;11.30;;
37288;SDS011;23174;49.462;11.000;2023-10-19T10:59:32;13.27;;;11.98;;
37288;SDS011;23174;49.462;11.000;2023-10-19T11:01:32;13.15;;;11.75;;
37288;SDS011;23174;49.462;11.000;2023-10-19T11:03:33;13.68;;;12.20;;
37288;SDS011;23174;49.462;11.000;2023-10-19T11:05:34;13.48;;;12.15;;
37288;SDS011;23174;49.462;11.000;2023-10-19T11:07:35;13.30;;;11.07;;
37288;SDS011;23174;49.462;11.000;2023-10-19T11:09:46;13.85;;;11.32;;
37288;SDS011;23174;49.462;11.000;2023-10-19T11:11:47;12.75;;;11.52;;
37288;SDS011;23174;49.462;11.000;2023-10-19T11:13:49;12.65;;;11.45;;
37288;SDS011;23174;49.462;11.000;2023-10-19T11:15:50;15.70;;;11.48;;
37288;SDS011;23174;49.462;11.000;2023-10-19T11:17:53;12.65;;;11.43;;
37288;SDS011;23174;49.462;11.000;2023-10-19T11:19:54;11.90;;;10.82;;
37288;SDS011;23174;49.462;11.000;2023-10-19T11:21:58;12.75;;;11.48;;
37288;SDS011;23174;49.462;11.000;2023-10-19T11:23:59;15.32;;;11.18;;
37288;SDS011;23174;49.462;11.000;2023-10-19T11:26:00;11.75;;;10.27;;
37288;SDS011;23174;49.462;11.000;2023-10-19T11:28:02;11.75;;;10.48;;
37288;SDS011;23174;49.462;11.000;2023-10-19T11:30:27;13.68;;;11.90;;
37288;SDS011;23174;49.462;11.000;2023-10-19T11:32:35;12.25;;;10.93;;
37288;SDS011;23174;49.462;11.000;2023-10-19T11:34:38;11.80;;;10.63;;
37288;SDS011;23174;49.462;11.000;2023-10-19T11:36:38;11.80;;;10.70;;
37288;SDS011;23174;49.462;11.000;2023-10-19T11:38:40;11.60;;;10.50;;
37288;SDS011;23174;49.462;11.000;2023-10-19T11:40:42;14.90;;;11.38;;
37288;SDS011;23174;49.462;11.000;2023-10-19T11:42:42;11.93;;;10.80;;
37288;SDS011;23174;49.462;11.000;2023-10-19T11:44:43;12.20;;;11.02;;
37288;SDS011;23174;49.462;11.000;2023-10-19T11:46:44;11.75;;;10.25;;
37288;SDS011;23174;49.462;11.000;2023-10-19T11:48:45;14.00;;;10.52;;
37288;SDS011;23174;49.462;11.000;2023-10-19T11:50:46;11.82;;;10.52;;
37288;SDS011;23174;49.462;11.000;2023-10-19T11:52:47;14.48;;;10.80;;